Decoded Metar for KBIX (BILOXI in MS, USA) (IATA:BIX) | Meteo·Mobile Aviation Weather
aviador You're here:

KBIX Decoded Metar

BILOXI in MS, USA
Report Time2019-02-22 03:21:00
UTC Time2019-02-22 03:50:44
Flight Rules lifr LIFR
Wind160° at 07 kt
W.Decomp.*RWY 21: 4.4 kt HW 5.4 kt LCW
W.Rank160° ranks 12
Current wind is below 160° avg. (7.2)
Visibility4023 m
Phenomena:Mist
Clouds:Overcast 001 Hf
Ceiling100 ft
Temp21°C (ISA +6)
Dew Point21°C (100% RH)
QNH1017 hPa
Density Alt935 ft
Elevation33 ft
Report Wrong Elevation
Raw Report
SPECI KBIX 220321Z 16007KT 2 1/2SM BR OVC001 21/21 A3002 RMK AO2A VIS
2V2 1/2 VIS 1 3/8 RWY03 SLP169=

Extra information for KBIX:More info

Metar Taf Metar & Taf Last 4 Metars F.Rules Stats Wind Profile Meteogram Temp Stats Airport Information Weather charts Add Link Nearby VenuesMetar ALERT Operation Metar Decoded Social comments

AIRNAV info for KBIX